createdAt,value
2023-05-17T00:02:10.886Z,58.20
2023-05-17T00:04:38.026Z,58.05
2023-05-17T00:07:07.368Z,58.51
2023-05-17T00:09:34.437Z,58.27
2023-05-17T00:12:01.519Z,58.27
2023-05-17T00:14:31.844Z,58.30
2023-05-17T00:16:59.250Z,58.10
2023-05-17T00:19:30.059Z,58.49
2023-05-17T00:22:00.516Z,58.60
2023-05-17T00:24:27.598Z,58.43
2023-05-17T00:26:54.739Z,58.43
2023-05-17T00:29:21.687Z,58.22
2023-05-17T00:31:48.716Z,58.43
2023-05-17T00:34:15.979Z,58.35
2023-05-17T00:36:42.980Z,58.67
2023-05-17T00:39:10.315Z,58.28
2023-05-17T00:41:37.688Z,58.09
2023-05-17T00:44:04.887Z,58.43
2023-05-17T00:46:33.958Z,58.93
2023-05-17T00:49:01.224Z,58.62
2023-05-17T00:51:28.753Z,58.82
2023-05-17T00:53:55.962Z,58.92
2023-05-17T00:56:24.137Z,58.48
2023-05-17T00:58:51.301Z,58.86
2023-05-17T01:01:18.339Z,59.03
2023-05-17T01:03:46.673Z,58.64
2023-05-17T01:06:14.509Z,58.34
2023-05-17T01:08:42.586Z,58.17
2023-05-17T01:11:14.595Z,58.38
2023-05-17T01:14:19.167Z,58.82
2023-05-17T01:16:57.650Z,59.24
2023-05-17T01:19:50.819Z,58.94
2023-05-17T01:22:44.320Z,59.02
2023-05-17T01:25:24.678Z,58.53
2023-05-17T01:27:54.651Z,58.38
2023-05-17T01:30:26.027Z,57.96
2023-05-17T01:33:01.112Z,57.35
2023-05-17T01:35:28.522Z,57.52
2023-05-17T01:37:55.939Z,57.26
2023-05-17T01:40:24.484Z,57.08
2023-05-17T01:42:57.558Z,56.67
2023-05-17T01:45:54.000Z,56.81
2023-05-17T01:48:28.991Z,56.59
2023-05-17T01:51:00.703Z,56.20
2023-05-17T01:53:40.261Z,56.12
2023-05-17T01:56:15.134Z,56.28
2023-05-17T01:58:48.645Z,56.12
2023-05-17T02:01:18.902Z,55.74
2023-05-17T02:03:53.326Z,55.61
2023-05-17T02:06:20.355Z,55.76
2023-05-17T02:08:47.580Z,55.62
2023-05-17T02:11:14.648Z,55.11
2023-05-17T02:13:41.891Z,54.26
2023-05-17T02:16:09.062Z,53.45
2023-05-17T02:18:37.954Z,53.25
2023-05-17T02:21:08.805Z,53.00
2023-05-17T02:23:38.272Z,52.95
2023-05-17T02:26:11.254Z,53.02
2023-05-17T02:28:38.349Z,52.93
2023-05-17T02:31:07.771Z,52.53
2023-05-17T02:33:35.543Z,52.09
2023-05-17T02:36:02.613Z,52.85
2023-05-17T02:38:29.811Z,51.80
2023-05-17T02:40:56.839Z,51.32
2023-05-17T02:43:30.236Z,51.00
2023-05-17T02:45:59.923Z,50.15
2023-05-17T02:48:27.014Z,50.05
2023-05-17T02:50:54.085Z,49.59
2023-05-17T02:53:21.476Z,48.75
2023-05-17T02:55:48.567Z,49.26
2023-05-17T02:58:15.781Z,48.78
2023-05-17T03:00:46.650Z,48.96
2023-05-17T03:03:15.539Z,48.92
2023-05-17T03:05:42.669Z,49.09
2023-05-17T03:08:10.255Z,49.53
2023-05-17T03:10:37.205Z,49.34
2023-05-17T03:13:04.880Z,49.33
2023-05-17T03:15:36.161Z,49.51
2023-05-17T03:18:04.579Z,49.38
2023-05-17T03:20:31.680Z,49.14
2023-05-17T03:22:58.693Z,48.88
2023-05-17T03:25:25.963Z,48.70
2023-05-17T03:27:53.118Z,49.11
2023-05-17T03:30:21.119Z,49.19
2023-05-17T03:32:48.430Z,48.55
2023-05-17T03:35:24.832Z,48.73
2023-05-17T03:37:55.381Z,49.39
2023-05-17T03:40:26.705Z,49.63
2023-05-17T03:42:54.771Z,49.89
2023-05-17T03:45:24.718Z,50.13
2023-05-17T03:47:52.012Z,50.39
2023-05-17T03:50:19.672Z,50.10
2023-05-17T03:52:49.797Z,49.64
2023-05-17T03:55:17.000Z,49.46
2023-05-17T03:57:44.342Z,48.91
2023-05-17T04:00:12.538Z,49.15
2023-05-17T04:02:42.178Z,48.87
2023-05-17T04:05:10.967Z,48.53
2023-05-17T04:07:38.007Z,48.23
2023-05-17T04:10:06.281Z,48.19
2023-05-17T04:12:34.411Z,47.81
2023-05-17T04:15:02.000Z,46.78
2023-05-17T04:17:29.556Z,46.27
2023-05-17T04:19:56.979Z,46.17
2023-05-17T04:22:24.489Z,45.93
2023-05-17T04:24:53.099Z,46.40
2023-05-17T04:27:22.469Z,46.09
2023-05-17T04:29:49.603Z,45.12
2023-05-17T04:32:18.194Z,44.71
2023-05-17T04:34:45.464Z,44.26
2023-05-17T04:37:13.191Z,43.96
2023-05-17T04:39:40.989Z,44.37
2023-05-17T04:42:09.296Z,43.67
2023-05-17T04:44:40.702Z,43.29
2023-05-17T04:47:09.237Z,42.93
2023-05-17T04:49:37.558Z,42.84
2023-05-17T04:52:06.284Z,43.09
2023-05-17T04:54:34.970Z,42.00
2023-05-17T04:57:02.055Z,42.17
2023-05-17T04:59:49.039Z,41.95
2023-05-17T05:02:16.587Z,40.73
2023-05-17T05:04:43.875Z,41.06
2023-05-17T05:07:12.950Z,40.50
2023-05-17T05:09:40.581Z,40.57
2023-05-17T05:12:10.510Z,39.85
2023-05-17T05:14:38.260Z,40.10
2023-05-17T05:17:09.702Z,39.90
2023-05-17T05:19:38.392Z,38.90
2023-05-17T05:22:19.022Z,39.45
2023-05-17T05:24:46.464Z,39.08
2023-05-17T05:27:14.033Z,38.77
2023-05-17T05:29:42.768Z,38.15
2023-05-17T05:32:11.566Z,38.78
2023-05-17T05:34:44.187Z,38.30
2023-05-17T05:37:11.376Z,37.87
2023-05-17T05:39:38.655Z,38.02
2023-05-17T05:42:06.210Z,38.14
2023-05-17T05:44:33.240Z,37.94
2023-05-17T05:47:00.692Z,37.43
2023-05-17T05:49:27.824Z,37.25
2023-05-17T05:51:55.470Z,37.34
2023-05-17T05:54:23.094Z,36.55
2023-05-17T05:56:52.477Z,36.43
2023-05-17T05:59:20.959Z,35.74
2023-05-17T06:01:48.740Z,35.37
2023-05-17T06:04:16.133Z,35.32
2023-05-17T06:06:43.277Z,34.91
2023-05-17T06:09:13.866Z,35.08
2023-05-17T06:11:40.876Z,34.25
2023-05-17T06:14:08.491Z,34.73
2023-05-17T06:16:35.523Z,33.75
2023-05-17T06:19:02.653Z,34.13
2023-05-17T06:21:30.296Z,34.34
2023-05-17T06:23:59.045Z,34.36
2023-05-17T06:26:26.217Z,34.60
2023-05-17T06:28:53.432Z,33.86
2023-05-17T06:31:21.223Z,33.35
2023-05-17T06:33:48.296Z,33.78
2023-05-17T06:36:15.532Z,32.65
2023-05-17T06:38:42.573Z,32.40
2023-05-17T06:41:09.635Z,32.84
2023-05-17T06:43:37.760Z,32.55
2023-05-17T06:46:04.945Z,31.54
2023-05-17T06:48:32.144Z,31.43
2023-05-17T06:50:59.282Z,31.10
2023-05-17T06:53:27.377Z,31.11
2023-05-17T06:55:54.484Z,31.10
2023-05-17T06:58:21.811Z,30.88
2023-05-17T07:00:48.774Z,30.24
2023-05-17T07:03:16.069Z,30.02
2023-05-17T07:05:43.205Z,29.88
2023-05-17T07:08:10.247Z,29.24
2023-05-17T07:10:37.313Z,28.83
2023-05-17T07:13:04.458Z,27.78
2023-05-17T07:15:31.883Z,27.81
2023-05-17T07:17:59.575Z,26.76
2023-05-17T07:20:26.874Z,25.63
2023-05-17T07:22:53.851Z,25.53
2023-05-17T07:25:21.707Z,24.99
2023-05-17T07:27:49.074Z,23.64
2023-05-17T07:30:16.247Z,22.58
2023-05-17T07:32:43.319Z,22.49
2023-05-17T07:35:10.532Z,21.56
2023-05-17T07:37:37.467Z,21.66
2023-05-17T07:40:05.831Z,21.60
2023-05-17T07:42:33.522Z,20.72
2023-05-17T07:45:00.529Z,21.12
2023-05-17T07:47:27.487Z,20.67
2023-05-17T07:49:55.159Z,19.76
2023-05-17T07:52:22.194Z,19.43
2023-05-17T07:54:49.138Z,18.82
2023-05-17T07:57:16.148Z,18.91
2023-05-17T07:59:43.165Z,18.34
2023-05-17T08:02:10.223Z,17.41
2023-05-17T08:04:37.372Z,17.78
2023-05-17T08:07:05.572Z,17.41
2023-05-17T08:09:32.479Z,16.95
2023-05-17T08:11:59.527Z,17.56
2023-05-17T08:14:27.141Z,17.84
2023-05-17T08:16:54.025Z,17.32
2023-05-17T08:19:21.170Z,17.19
2023-05-17T08:21:49.348Z,16.87
2023-05-17T08:24:17.841Z,16.45
2023-05-17T08:26:45.048Z,17.21
2023-05-17T08:29:12.172Z,16.96
2023-05-17T08:31:39.257Z,16.37
2023-05-17T08:34:07.030Z,17.05
2023-05-17T08:36:34.547Z,17.35
2023-05-17T08:39:01.642Z,17.34
2023-05-17T08:41:30.816Z,17.74
2023-05-17T08:43:59.220Z,18.11
2023-05-17T08:46:27.037Z,18.56
2023-05-17T08:49:00.189Z,19.31
2023-05-17T08:51:27.895Z,20.01
2023-05-17T08:53:58.376Z,19.85
2023-05-17T08:56:28.997Z,20.83
2023-05-17T08:58:57.924Z,21.14
2023-05-17T09:01:26.881Z,21.43
2023-05-17T09:03:55.329Z,21.75
2023-05-17T09:06:23.396Z,21.80
2023-05-17T09:08:53.213Z,22.09
2023-05-17T09:11:31.383Z,22.61
2023-05-17T09:14:00.002Z,23.21
2023-05-17T09:16:33.661Z,23.11
2023-05-17T09:19:01.576Z,24.66
2023-05-17T09:21:31.150Z,25.75
2023-05-17T09:24:07.090Z,25.73
2023-05-17T09:26:46.027Z,26.81
2023-05-17T09:29:17.125Z,27.22
2023-05-17T09:31:44.847Z,27.54
2023-05-17T09:34:12.251Z,28.02
2023-05-17T09:36:44.833Z,28.69
2023-05-17T09:39:13.875Z,29.38
2023-05-17T09:41:51.351Z,29.75
2023-05-17T09:44:18.421Z,30.29
2023-05-17T09:46:47.545Z,29.89
2023-05-17T09:49:16.195Z,29.21
2023-05-17T09:51:45.128Z,28.72
2023-05-17T09:54:12.768Z,29.29
2023-05-17T09:56:40.387Z,29.32
2023-05-17T09:59:15.191Z,29.61
2023-05-17T10:01:45.433Z,29.09
2023-05-17T10:04:14.255Z,29.70
2023-05-17T10:09:15.923Z,30.24
2023-05-17T10:11:47.306Z,29.23
2023-05-17T10:14:23.333Z,29.49
2023-05-17T10:16:52.291Z,29.00
2023-05-17T10:19:21.499Z,29.58
2023-05-17T10:21:51.246Z,29.74
2023-05-17T10:24:20.440Z,30.64
2023-05-17T10:26:52.176Z,31.05
2023-05-17T10:29:22.020Z,30.94
2023-05-17T10:31:53.029Z,31.44
2023-05-17T10:34:20.863Z,31.99
2023-05-17T10:36:50.299Z,32.41
2023-05-17T10:39:18.685Z,32.30
2023-05-17T10:41:49.742Z,31.38
2023-05-17T10:44:18.901Z,31.73
2023-05-17T10:46:56.635Z,32.22
2023-05-17T10:49:32.542Z,33.42
2023-05-17T10:52:23.629Z,33.18
2023-05-17T10:54:51.149Z,33.56
2023-05-17T10:57:49.911Z,33.57
2023-05-17T11:00:22.230Z,34.99
2023-05-17T11:02:50.931Z,33.55
2023-05-17T11:05:28.361Z,34.00
2023-05-17T11:08:18.253Z,33.56
2023-05-17T11:11:10.485Z,34.11
2023-05-17T11:13:54.419Z,33.84
2023-05-17T11:16:24.373Z,33.95
2023-05-17T11:18:53.549Z,33.55
2023-05-17T11:21:22.687Z,33.85
2023-05-17T11:23:56.738Z,33.95
2023-05-17T11:26:27.969Z,33.69
2023-05-17T11:29:05.488Z,34.16
2023-05-17T11:31:34.988Z,34.07
2023-05-17T11:34:05.907Z,34.60
2023-05-17T11:36:48.542Z,34.86
2023-05-17T11:39:21.801Z,35.19
2023-05-17T11:41:51.927Z,34.50
2023-05-17T11:44:29.636Z,34.42
2023-05-17T11:47:10.875Z,33.29
2023-05-17T11:49:39.427Z,33.70
2023-05-17T11:52:08.203Z,34.13
2023-05-17T11:54:35.649Z,34.22
2023-05-17T11:57:04.109Z,33.41
2023-05-17T11:59:38.644Z,33.22
2023-05-17T12:02:05.953Z,32.32
2023-05-17T12:04:37.647Z,31.46
2023-05-17T12:07:05.600Z,30.75
2023-05-17T12:09:32.648Z,30.31
2023-05-17T12:12:04.255Z,30.77
2023-05-17T12:14:31.445Z,30.58
2023-05-17T12:17:00.938Z,30.21
2023-05-17T12:19:30.114Z,30.14
2023-05-17T12:22:12.871Z,30.40
2023-05-17T12:24:43.833Z,31.12
2023-05-17T12:27:11.520Z,31.80
2023-05-17T12:29:39.495Z,32.92
2023-05-17T12:32:08.913Z,31.56
2023-05-17T12:34:42.356Z,32.62
2023-05-17T12:37:13.355Z,32.17
2023-05-17T12:39:41.466Z,30.61
2023-05-17T12:42:09.832Z,30.11
2023-05-17T12:44:37.029Z,30.04
2023-05-17T12:47:04.214Z,30.12
2023-05-17T12:49:34.619Z,29.94
2023-05-17T12:52:05.822Z,29.69
2023-05-17T12:54:33.575Z,30.29
2023-05-17T12:57:12.861Z,29.81
2023-05-17T12:59:50.318Z,33.76
2023-05-17T13:02:17.792Z,33.52
2023-05-17T13:04:45.098Z,33.16
2023-05-17T13:07:12.675Z,36.71
2023-05-17T13:09:48.247Z,38.77
2023-05-17T13:12:24.052Z,40.27
2023-05-17T13:14:53.299Z,41.11
2023-05-17T13:17:34.771Z,42.55
2023-05-17T13:20:02.476Z,41.42
2023-05-17T13:22:29.489Z,40.56
2023-05-17T13:24:56.789Z,41.88
2023-05-17T13:27:24.048Z,41.91
2023-05-17T13:29:51.145Z,39.95
2023-05-17T13:32:19.254Z,41.70
2023-05-17T13:34:46.373Z,40.95
2023-05-17T13:37:13.423Z,41.28
2023-05-17T13:39:42.259Z,41.66
2023-05-17T13:42:11.075Z,39.48
2023-05-17T13:44:38.660Z,39.06
2023-05-17T13:47:06.391Z,39.75
2023-05-17T13:49:37.417Z,40.13
2023-05-17T13:52:08.678Z,39.55
2023-05-17T13:54:36.793Z,40.57
2023-05-17T13:57:04.533Z,40.25
2023-05-17T13:59:32.339Z,40.48
2023-05-17T14:01:59.556Z,41.45
2023-05-17T14:04:26.569Z,41.48
2023-05-17T14:06:55.214Z,40.50
2023-05-17T14:09:22.942Z,40.34
2023-05-17T14:11:50.240Z,40.28
2023-05-17T14:14:17.255Z,39.56
2023-05-17T14:16:44.296Z,39.97
2023-05-17T14:19:11.448Z,40.05
2023-05-17T14:21:38.458Z,39.72
2023-05-17T14:24:05.926Z,40.43
2023-05-17T14:26:32.989Z,40.59
2023-05-17T14:29:00.126Z,40.58
2023-05-17T14:31:29.960Z,39.96
2023-05-17T14:33:57.678Z,39.91
2023-05-17T14:36:24.809Z,40.62
2023-05-17T14:38:52.066Z,40.94
2023-05-17T14:41:19.150Z,40.11
2023-05-17T14:43:46.307Z,40.68
2023-05-17T14:46:14.764Z,40.49
2023-05-17T14:48:42.105Z,40.98
2023-05-17T14:51:09.383Z,41.03
2023-05-17T14:53:36.828Z,41.11
2023-05-17T14:56:04.006Z,41.47
2023-05-17T14:58:31.002Z,41.68
2023-05-17T15:01:05.270Z,42.21
2023-05-17T15:03:36.277Z,42.29
2023-05-17T15:06:10.089Z,42.56
2023-05-17T15:08:39.503Z,42.39
2023-05-17T15:11:10.867Z,43.43
2023-05-17T15:13:38.332Z,44.79
2023-05-17T15:16:05.787Z,44.48
2023-05-17T15:18:33.488Z,44.80
2023-05-17T15:21:05.649Z,45.25
2023-05-17T15:23:32.770Z,46.06
2023-05-17T15:25:59.963Z,47.19
2023-05-17T15:28:27.046Z,47.62
2023-05-17T15:31:06.614Z,48.49
2023-05-17T15:33:33.857Z,48.87
2023-05-17T15:36:00.865Z,48.91
2023-05-17T15:38:28.013Z,50.21
2023-05-17T15:41:16.141Z,51.74
2023-05-17T15:43:43.688Z,51.49
2023-05-17T15:46:11.787Z,51.03
2023-05-17T15:48:38.983Z,51.67
2023-05-17T15:51:06.744Z,52.10
2023-05-17T15:53:34.725Z,51.74
2023-05-17T15:56:01.744Z,51.53
2023-05-17T15:58:28.857Z,51.65
2023-05-17T16:00:56.015Z,51.74
2023-05-17T16:03:22.999Z,51.72
2023-05-17T16:05:50.235Z,52.57
2023-05-17T16:08:17.407Z,52.38
2023-05-17T16:10:44.462Z,52.20
2023-05-17T16:13:11.606Z,51.93
2023-05-17T16:15:38.726Z,52.12
2023-05-17T16:18:06.635Z,52.65
2023-05-17T16:20:34.089Z,52.46
2023-05-17T16:23:01.278Z,52.54
2023-05-17T16:25:28.794Z,52.79
2023-05-17T16:27:56.216Z,52.96
2023-05-17T16:30:23.447Z,53.46
2023-05-17T16:32:50.687Z,53.50
2023-05-17T16:35:19.987Z,53.98
2023-05-17T16:37:59.232Z,54.56
2023-05-17T16:40:29.052Z,54.02
2023-05-17T16:42:56.457Z,54.06
2023-05-17T16:45:23.491Z,53.96
2023-05-17T16:47:50.665Z,53.84
2023-05-17T16:50:21.163Z,54.36
2023-05-17T16:52:48.215Z,54.67
2023-05-17T16:55:18.846Z,54.75
2023-05-17T16:57:45.888Z,54.86
2023-05-17T17:00:13.507Z,55.03
2023-05-17T17:02:40.679Z,54.69
2023-05-17T17:05:08.240Z,54.61
2023-05-17T17:07:39.562Z,54.72
2023-05-17T17:10:10.345Z,55.26
2023-05-17T17:12:37.478Z,54.84
2023-05-17T17:15:07.532Z,55.12
2023-05-17T17:17:36.315Z,54.74
2023-05-17T17:20:09.221Z,54.51
2023-05-17T17:22:36.610Z,54.54
2023-05-17T17:25:04.460Z,54.04
2023-05-17T17:27:32.011Z,54.54
2023-05-17T17:29:59.200Z,54.60
2023-05-17T17:32:26.389Z,54.02
2023-05-17T17:34:53.568Z,53.32
2023-05-17T17:37:20.874Z,53.74
2023-05-17T17:39:47.926Z,53.26
2023-05-17T17:42:15.328Z,53.13
2023-05-17T17:44:42.389Z,53.51
2023-05-17T17:47:09.527Z,53.16
2023-05-17T17:49:42.165Z,53.25
2023-05-17T17:52:16.057Z,52.95
2023-05-17T17:54:44.695Z,53.05
2023-05-17T17:57:13.289Z,53.29
2023-05-17T17:59:40.564Z,53.01
2023-05-17T18:02:08.006Z,52.95
2023-05-17T18:04:35.083Z,52.91
2023-05-17T18:07:02.741Z,53.63
2023-05-17T18:09:30.280Z,53.33
2023-05-17T18:11:57.341Z,53.53
2023-05-17T18:14:24.393Z,53.77
2023-05-17T18:16:51.544Z,53.64
2023-05-17T18:19:18.978Z,53.15
2023-05-17T18:21:46.964Z,53.05
2023-05-17T18:24:14.072Z,53.33
2023-05-17T18:26:41.372Z,53.28
2023-05-17T18:29:08.462Z,53.37
2023-05-17T18:31:36.333Z,53.74
2023-05-17T18:34:03.370Z,53.51
2023-05-17T18:36:30.387Z,53.21
2023-05-17T18:38:59.285Z,53.10
2023-05-17T18:41:26.890Z,52.92
2023-05-17T18:43:54.017Z,52.78
2023-05-17T18:46:21.616Z,52.80
2023-05-17T18:48:48.897Z,53.04
2023-05-17T18:51:15.940Z,53.18
2023-05-17T18:53:43.003Z,53.44
2023-05-17T18:56:10.025Z,53.28
2023-05-17T18:58:37.188Z,52.93
2023-05-17T19:01:04.476Z,52.97
2023-05-17T19:03:32.112Z,52.70
2023-05-17T19:05:59.278Z,52.41
2023-05-17T19:08:26.730Z,52.61
2023-05-17T19:10:54.055Z,52.61
2023-05-17T19:13:21.116Z,52.24
2023-05-17T19:15:48.978Z,52.37
2023-05-17T19:18:16.107Z,52.37
2023-05-17T19:20:43.248Z,52.30
2023-05-17T19:23:10.479Z,52.67
2023-05-17T19:25:37.645Z,52.46
2023-05-17T19:28:05.149Z,52.21
2023-05-17T19:30:33.081Z,52.36
2023-05-17T19:33:00.482Z,52.23
2023-05-17T19:35:28.049Z,52.16
2023-05-17T19:37:57.489Z,52.28
2023-05-17T19:40:24.921Z,52.00
2023-05-17T19:42:52.482Z,52.06
2023-05-17T19:45:19.856Z,51.96
2023-05-17T19:47:50.404Z,52.02
2023-05-17T19:50:17.565Z,52.08
2023-05-17T19:52:44.576Z,52.22
2023-05-17T19:55:13.841Z,52.21
2023-05-17T19:57:41.015Z,52.00
2023-05-17T20:00:09.212Z,52.31
2023-05-17T20:02:36.465Z,52.05
2023-05-17T20:05:03.932Z,52.17
2023-05-17T20:07:31.584Z,52.15
2023-05-17T20:09:58.884Z,52.60
2023-05-17T20:12:26.718Z,52.59
2023-05-17T20:14:54.004Z,52.62
2023-05-17T20:17:21.782Z,52.43
2023-05-17T20:19:49.034Z,52.75
2023-05-17T20:22:17.161Z,52.66
2023-05-17T20:24:45.310Z,52.69
2023-05-17T20:27:16.626Z,52.94
2023-05-17T20:29:49.240Z,52.99
2023-05-17T20:32:17.096Z,52.99
2023-05-17T20:34:46.871Z,53.10
2023-05-17T20:37:14.895Z,52.57
2023-05-17T20:39:42.356Z,52.82
2023-05-17T20:42:09.936Z,53.25
2023-05-17T20:44:36.965Z,53.40
2023-05-17T20:47:06.022Z,52.94
2023-05-17T20:49:33.131Z,53.06
2023-05-17T20:52:03.594Z,52.76
2023-05-17T20:54:30.873Z,53.69
2023-05-17T20:56:58.832Z,53.29
2023-05-17T20:59:26.665Z,53.46
2023-05-17T21:01:54.003Z,53.44
2023-05-17T21:04:21.379Z,53.59
2023-05-17T21:06:48.658Z,53.31
2023-05-17T21:09:15.959Z,53.61
2023-05-17T21:11:44.216Z,53.43
2023-05-17T21:14:23.364Z,53.36
2023-05-17T21:16:50.478Z,53.21
2023-05-17T21:19:17.623Z,53.14
2023-05-17T21:21:44.837Z,53.29
2023-05-17T21:24:11.945Z,52.97
2023-05-17T21:26:40.869Z,53.03
2023-05-17T21:29:12.910Z,53.33
2023-05-17T21:31:43.384Z,53.05
2023-05-17T21:34:10.659Z,53.16
2023-05-17T21:36:37.836Z,52.88
2023-05-17T21:39:04.900Z,53.00
2023-05-17T21:41:32.209Z,52.96
2023-05-17T21:43:59.448Z,52.87
2023-05-17T21:46:26.731Z,53.16
2023-05-17T21:48:53.883Z,53.12
2023-05-17T21:51:22.283Z,53.36
2023-05-17T21:53:50.711Z,53.31
2023-05-17T21:56:17.909Z,53.29
2023-05-17T21:58:48.172Z,53.19
2023-05-17T22:01:15.360Z,53.41
2023-05-17T22:03:44.767Z,53.45
2023-05-17T22:06:12.027Z,53.34
2023-05-17T22:08:42.534Z,53.30
2023-05-17T22:11:11.144Z,53.55
2023-05-17T22:13:39.257Z,53.46
2023-05-17T22:16:06.795Z,53.58
2023-05-17T22:18:38.420Z,53.68
2023-05-17T22:21:05.696Z,53.83
2023-05-17T22:23:32.631Z,53.86
2023-05-17T22:26:00.804Z,54.10
2023-05-17T22:28:28.845Z,53.87
2023-05-17T22:30:56.222Z,53.55
2023-05-17T22:33:23.695Z,54.11
2023-05-17T22:35:53.655Z,54.33
2023-05-17T22:38:24.547Z,54.31
2023-05-17T22:40:52.101Z,53.96
2023-05-17T22:43:21.638Z,54.18
2023-05-17T22:45:53.713Z,54.24
2023-05-17T22:48:22.164Z,53.98
2023-05-17T22:50:50.713Z,54.04
2023-05-17T22:53:19.601Z,54.49
2023-05-17T22:55:49.337Z,54.32
2023-05-17T22:58:16.415Z,54.07
2023-05-17T23:00:44.703Z,54.30
2023-05-17T23:03:12.371Z,54.42
2023-05-17T23:05:39.677Z,54.21
2023-05-17T23:08:08.098Z,54.46
2023-05-17T23:10:35.144Z,54.68
2023-05-17T23:13:02.436Z,55.12
2023-05-17T23:15:29.830Z,54.73
2023-05-17T23:17:59.765Z,54.55
2023-05-17T23:20:26.943Z,54.52
2023-05-17T23:22:54.005Z,54.79
2023-05-17T23:25:21.471Z,54.55
2023-05-17T23:27:51.044Z,55.07
2023-05-17T23:30:18.237Z,55.18
2023-05-17T23:32:47.656Z,54.79
2023-05-17T23:35:14.854Z,55.11
2023-05-17T23:37:42.341Z,55.00
2023-05-17T23:40:09.959Z,55.20
2023-05-17T23:42:37.899Z,55.30
2023-05-17T23:45:05.448Z,55.56
2023-05-17T23:47:33.777Z,55.26
2023-05-17T23:50:03.115Z,55.40
2023-05-17T23:52:32.839Z,55.19
2023-05-17T23:55:00.214Z,55.33
2023-05-17T23:57:27.507Z,55.54
2023-05-17T23:59:54.540Z,55.53
